Time;durP1;ratioP1;P1;durP2;ratioP2;P2;SDS_P1;SDS_P2;PMS_P1;PMS_P2;Temp;Humidity;BMP_temperature;BMP_pressure;BME280_temperature;BME280_humidity;BME280_pressure;Samples;Min_cycle;Max_cycle;Signal;HPM_P1;HPM_P2
2021/03/01 00:00:10;;;;;;;29.90;15.43;;;4.20;99.90;;;;;;4819360;29;20312;-60
2021/03/01 00:02:39;;;;;;;29.37;14.70;;;4.10;99.90;;;;;;4816060;29;20205;-60
2021/03/01 00:05:09;;;;;;;33.00;15.90;;;4.00;99.90;;;;;;4819421;29;20728;-60
2021/03/01 00:07:36;;;;;;;28.93;15.57;;;4.00;99.90;;;;;;4822890;29;20274;-60
2021/03/01 00:10:05;;;;;;;29.77;16.50;;;3.90;99.90;;;;;;4821042;29;20201;-60
2021/03/01 00:12:33;;;;;;;27.33;16.17;;;3.90;99.90;;;;;;4820201;29;20201;-60
2021/03/01 00:15:01;;;;;;;31.47;16.30;;;3.80;99.90;;;;;;4822070;29;20205;-60
2021/03/01 00:17:28;;;;;;;33.30;16.63;;;3.70;99.90;;;;;;4821206;29;20288;-60
2021/03/01 00:19:57;;;;;;;33.43;17.07;;;3.70;99.90;;;;;;4821695;29;20203;-61
2021/03/01 00:22:24;;;;;;;35.13;17.87;;;3.70;99.90;;;;;;4821706;29;20233;-60
2021/03/01 00:24:51;;;;;;;33.40;17.60;;;3.60;99.90;;;;;;4820451;29;20216;-60
2021/03/01 00:27:19;;;;;;;32.73;16.77;;;3.50;99.90;;;;;;4822150;29;20331;-60
2021/03/01 00:29:46;;;;;;;27.43;16.37;;;3.50;99.90;;;;;;4821355;29;20300;-60
2021/03/01 00:32:14;;;;;;;31.40;17.43;;;3.50;99.90;;;;;;4821409;29;20197;-60
2021/03/01 00:34:41;;;;;;;37.63;18.03;;;3.40;99.90;;;;;;4806406;29;20201;-60
2021/03/01 00:37:10;;;;;;;33.13;17.30;;;3.40;99.90;;;;;;4818743;29;20212;-60
2021/03/01 00:39:37;;;;;;;29.83;15.87;;;3.30;99.90;;;;;;4822136;29;20644;-60
2021/03/01 00:42:06;;;;;;;31.07;16.67;;;3.20;99.90;;;;;;4821833;29;20200;-60
2021/03/01 00:44:33;;;;;;;32.77;17.17;;;3.10;99.90;;;;;;4822175;29;20213;-60
2021/03/01 00:47:00;;;;;;;30.60;16.83;;;3.00;99.90;;;;;;4820222;29;20209;-60
2021/03/01 00:49:28;;;;;;;31.23;16.37;;;3.00;99.90;;;;;;4820998;29;20768;-60
2021/03/01 00:51:55;;;;;;;35.30;16.93;;;2.90;99.90;;;;;;4819620;29;20237;-60
2021/03/01 00:54:23;;;;;;;40.77;18.40;;;2.80;99.90;;;;;;4834478;29;20224;-60
2021/03/01 00:56:51;;;;;;;38.87;17.17;;;2.80;99.90;;;;;;4826636;29;20270;-60
2021/03/01 00:59:18;;;;;;;34.93;17.63;;;2.80;99.90;;;;;;4817507;29;20205;-60
2021/03/01 01:01:45;;;;;;;32.43;18.17;;;2.80;99.90;;;;;;4819468;29;20242;-60
2021/03/01 01:04:13;;;;;;;33.13;17.83;;;2.70;99.90;;;;;;4819674;29;20296;-60
2021/03/01 01:06:40;;;;;;;35.87;17.80;;;2.70;99.90;;;;;;4819639;29;20756;-60
2021/03/01 01:09:07;;;;;;;33.67;17.27;;;2.60;99.90;;;;;;4818963;29;20266;-60
2021/03/01 01:11:36;;;;;;;32.63;17.27;;;2.50;99.90;;;;;;4820767;29;20208;-60
2021/03/01 01:14:03;;;;;;;31.80;17.27;;;2.50;99.90;;;;;;4819270;29;20760;-60
2021/03/01 01:16:30;;;;;;;30.97;16.93;;;2.40;99.90;;;;;;4818371;29;20304;-60
2021/03/01 01:18:58;;;;;;;35.20;17.80;;;2.40;99.90;;;;;;4822245;29;20236;-60
2021/03/01 01:21:25;;;;;;;36.30;16.77;;;2.30;99.90;;;;;;4821174;29;20292;-60
2021/03/01 01:23:53;;;;;;;31.30;17.60;;;2.30;99.90;;;;;;4821557;29;20220;-60
2021/03/01 01:26:21;;;;;;;32.60;17.40;;;2.20;99.90;;;;;;4817246;29;20346;-60
2021/03/01 01:28:49;;;;;;;35.37;17.33;;;2.20;99.90;;;;;;4805084;29;20228;-60
2021/03/01 01:31:16;;;;;;;32.93;18.13;;;2.10;99.90;;;;;;4820386;29;20291;-60
2021/03/01 01:33:44;;;;;;;40.47;18.90;;;2.10;99.90;;;;;;4820287;29;20219;-60
2021/03/01 01:36:12;;;;;;;37.30;19.40;;;2.10;99.90;;;;;;4818393;29;20236;-60
2021/03/01 01:38:52;;;;;;;42.50;18.93;;;2.10;99.90;;;;;;4820925;29;20193;-60
2021/03/01 01:41:19;;;;;;;37.57;19.33;;;2.10;99.90;;;;;;4817918;29;20197;-60
2021/03/01 01:43:47;;;;;;;40.87;19.90;;;2.10;99.90;;;;;;4817696;29;20205;-61
2021/03/01 01:46:15;;;;;;;38.47;19.10;;;2.00;99.90;;;;;;4819507;29;20193;-60
2021/03/01 01:48:43;;;;;;;36.13;19.73;;;2.00;99.90;;;;;;4815631;29;20200;-60
2021/03/01 01:51:10;;;;;;;45.57;20.03;;;2.00;99.90;;;;;;4816481;29;20240;-60
2021/03/01 01:53:38;;;;;;;44.03;20.80;;;2.00;99.90;;;;;;4816941;29;20215;-60
2021/03/01 01:56:06;;;;;;;43.97;21.67;;;2.00;99.90;;;;;;4818394;29;20209;-60
2021/03/01 01:58:34;;;;;;;41.20;20.40;;;2.00;99.90;;;;;;4821859;29;20209;-60
2021/03/01 02:01:01;;;;;;;43.87;20.77;;;2.00;99.90;;;;;;4817660;29;20192;-60
2021/03/01 02:03:44;;;;;;;44.00;21.20;;;2.00;99.90;;;;;;4818263;29;20239;-60
2021/03/01 02:06:19;;;;;;;53.80;23.63;;;1.90;99.90;;;;;;4818808;29;20277;-60
2021/03/01 02:09:03;;;;;;;59.30;25.33;;;2.00;99.90;;;;;;4820142;29;20188;-60
2021/03/01 02:11:38;;;;;;;51.03;25.30;;;2.30;99.90;;;;;;4817762;29;20311;-60
2021/03/01 02:14:11;;;;;;;62.03;27.57;;;2.40;99.90;;;;;;4818122;29;20774;-60
2021/03/01 02:16:39;;;;;;;58.93;27.70;;;2.40;99.90;;;;;;4818869;29;20207;-60
2021/03/01 02:19:08;;;;;;;63.30;27.63;;;2.60;99.90;;;;;;4820660;29;20734;-60
2021/03/01 02:21:44;;;;;;;59.13;26.17;;;2.60;99.90;;;;;;4816707;29;20295;-60
2021/03/01 02:24:13;;;;;;;59.20;26.60;;;2.50;99.90;;;;;;4818429;29;20327;-60
2021/03/01 02:26:44;;;;;;;55.03;25.63;;;2.50;99.90;;;;;;4820213;29;20232;-60
2021/03/01 02:29:15;;;;;;;58.47;24.47;;;2.30;99.90;;;;;;4817068;29;20580;-60
2021/03/01 02:31:46;;;;;;;47.53;23.67;;;2.10;99.90;;;;;;4818146;29;20625;-60
2021/03/01 02:34:16;;;;;;;50.13;23.17;;;2.00;99.90;;;;;;4818794;29;20193;-60
2021/03/01 02:36:48;;;;;;;47.30;21.80;;;1.90;99.90;;;;;;4820097;29;20266;-60
2021/03/01 02:39:17;;;;;;;49.00;23.13;;;1.70;99.90;;;;;;4819199;29;20569;-60
2021/03/01 02:41:45;;;;;;;44.73;23.07;;;1.70;99.90;;;;;;4821131;29;20300;-60
2021/03/01 02:44:13;;;;;;;55.13;24.47;;;1.60;99.90;;;;;;4818231;29;20713;-60
2021/03/01 02:46:41;;;;;;;52.97;23.93;;;1.60;99.90;;;;;;4819911;29;20201;-60
2021/03/01 02:49:10;;;;;;;49.50;23.00;;;1.60;99.90;;;;;;4820016;29;20273;-60
2021/03/01 02:51:39;;;;;;;59.50;25.93;;;1.50;99.90;;;;;;4817082;29;20267;-60
2021/03/01 02:54:08;;;;;;;53.93;26.23;;;1.60;99.90;;;;;;4820063;29;20204;-60
2021/03/01 02:56:35;;;;;;;58.10;27.27;;;1.60;99.90;;;;;;4820405;29;20196;-60
2021/03/01 02:59:04;;;;;;;52.90;24.00;;;1.60;99.90;;;;;;4818510;29;20305;-60
2021/03/01 03:01:33;;;;;;;61.40;24.87;;;1.50;99.90;;;;;;4802838;29;20200;-60
2021/03/01 03:04:01;;;;;;;55.57;25.40;;;1.50;99.90;;;;;;4815581;29;20201;-60
2021/03/01 03:06:31;;;;;;;53.77;24.83;;;1.40;99.90;;;;;;4818994;29;20798;-60
2021/03/01 03:09:00;;;;;;;57.50;25.20;;;1.30;99.90;;;;;;4818792;29;20236;-60
2021/03/01 03:11:30;;;;;;;54.37;25.23;;;1.30;99.90;;;;;;4818214;29;20254;-60
2021/03/01 03:13:58;;;;;;;53.20;24.57;;;1.20;99.90;;;;;;4802963;29;20204;-60
2021/03/01 03:16:26;;;;;;;61.17;25.13;;;1.20;99.90;;;;;;4818554;29;20303;-60
2021/03/01 03:18:55;;;;;;;61.83;26.30;;;1.20;99.90;;;;;;4820860;29;20312;-60
2021/03/01 03:21:22;;;;;;;56.70;25.33;;;1.10;99.90;;;;;;4820179;29;20257;-60
2021/03/01 03:23:50;;;;;;;66.70;29.30;;;1.10;99.90;;;;;;4819407;29;20236;-60
2021/03/01 03:26:17;;;;;;;62.40;28.77;;;1.30;99.90;;;;;;4817829;29;20276;-60
2021/03/01 03:28:46;;;;;;;67.17;29.33;;;1.40;99.90;;;;;;4816024;29;20284;-60
2021/03/01 03:31:13;;;;;;;68.27;29.97;;;1.30;99.90;;;;;;4819385;29;20243;-60
2021/03/01 03:33:41;;;;;;;68.60;28.93;;;1.20;99.90;;;;;;4818080;29;20201;-60
2021/03/01 03:36:09;;;;;;;56.63;26.80;;;1.10;99.90;;;;;;4819725;29;20234;-60
2021/03/01 03:38:43;;;;;;;58.23;26.43;;;1.00;99.90;;;;;;4817969;29;20556;-60
2021/03/01 03:41:13;;;;;;;62.00;28.30;;;0.90;99.90;;;;;;4820006;29;20665;-60
2021/03/01 03:43:43;;;;;;;63.70;28.53;;;1.00;99.90;;;;;;4834427;29;20201;-60
2021/03/01 03:46:13;;;;;;;70.47;29.27;;;1.00;99.90;;;;;;4821819;29;20328;-60
2021/03/01 03:48:42;;;;;;;74.93;30.30;;;1.00;99.90;;;;;;4838041;29;20205;-60
2021/03/01 03:51:13;;;;;;;70.07;28.57;;;0.90;99.90;;;;;;4821627;29;20331;-60
2021/03/01 03:53:46;;;;;;;62.30;28.10;;;0.90;99.90;;;;;;4820466;29;20251;-60
2021/03/01 03:56:15;;;;;;;74.40;29.87;;;0.90;99.90;;;;;;4821840;29;20257;-60
2021/03/01 03:58:45;;;;;;;67.37;29.57;;;0.90;99.90;;;;;;4823086;29;20204;-60
2021/03/01 04:01:14;;;;;;;76.90;30.47;;;0.90;99.90;;;;;;4820008;29;20571;-60
2021/03/01 04:03:43;;;;;;;76.73;30.83;;;1.00;99.90;;;;;;4819397;29;20220;-60
2021/03/01 04:06:15;;;;;;;74.07;32.27;;;0.90;99.90;;;;;;4820925;29;20913;-60
2021/03/01 04:08:46;;;;;;;77.97;32.10;;;0.90;99.90;;;;;;4821324;29;20749;-60
2021/03/01 04:11:15;;;;;;;78.60;32.17;;;0.90;99.90;;;;;;4821277;29;20200;-60
2021/03/01 04:13:44;;;;;;;84.43;33.83;;;1.00;99.90;;;;;;4822463;29;20209;-60
2021/03/01 04:16:15;;;;;;;84.10;33.73;;;1.00;99.90;;;;;;4818260;29;20251;-60
2021/03/01 04:18:47;;;;;;;85.57;34.70;;;1.00;99.90;;;;;;4814300;29;20193;-60
2021/03/01 04:21:16;;;;;;;86.87;34.10;;;1.00;99.90;;;;;;4819323;29;20292;-60
2021/03/01 04:23:46;;;;;;;85.53;35.27;;;0.90;99.90;;;;;;4820654;29;20228;-60
2021/03/01 04:26:14;;;;;;;94.63;36.27;;;1.00;99.90;;;;;;4822280;29;20248;-60
2021/03/01 04:28:43;;;;;;;92.90;35.63;;;0.90;99.90;;;;;;4823055;29;20249;-60
2021/03/01 04:31:12;;;;;;;95.63;37.53;;;0.90;99.90;;;;;;4820184;29;20232;-60
2021/03/01 04:33:42;;;;;;;95.87;37.47;;;1.00;99.90;;;;;;4822253;29;20284;-60
2021/03/01 04:36:11;;;;;;;96.37;37.87;;;1.00;99.90;;;;;;4822054;29;20258;-60
2021/03/01 04:38:38;;;;;;;88.00;35.73;;;1.00;99.90;;;;;;4821933;29;20296;-60
2021/03/01 04:41:06;;;;;;;106.03;36.83;;;0.90;99.90;;;;;;4821460;29;21163;-60
2021/03/01 04:43:37;;;;;;;99.87;38.27;;;0.90;99.90;;;;;;4818353;29;20646;-60
2021/03/01 04:46:05;;;;;;;102.50;39.03;;;0.90;99.90;;;;;;4817363;29;20351;-60
2021/03/01 04:48:33;;;;;;;99.30;37.27;;;0.90;99.90;;;;;;4833788;29;20197;-60
2021/03/01 04:51:02;;;;;;;111.77;38.77;;;1.00;99.90;;;;;;4820932;29;20236;-60
2021/03/01 04:53:30;;;;;;;108.77;39.80;;;0.90;99.90;;;;;;4820193;29;20295;-60
2021/03/01 04:55:58;;;;;;;114.87;40.70;;;1.00;99.90;;;;;;4820274;29;20197;-60
2021/03/01 04:58:28;;;;;;;105.60;40.90;;;1.00;99.90;;;;;;4820453;29;20803;-60
2021/03/01 05:01:00;;;;;;;104.93;39.83;;;1.00;99.90;;;;;;4821698;29;20208;-60
2021/03/01 05:03:28;;;;;;;106.90;41.03;;;1.00;99.90;;;;;;4820110;29;20557;-60
2021/03/01 05:05:58;;;;;;;108.77;40.33;;;1.00;99.90;;;;;;4818267;29;20761;-60
2021/03/01 05:08:28;;;;;;;122.13;42.80;;;1.10;99.90;;;;;;4818818;29;20200;-60
2021/03/01 05:10:57;;;;;;;123.07;44.27;;;1.10;99.90;;;;;;4821365;29;20239;-60
2021/03/01 05:13:25;;;;;;;120.53;44.40;;;1.20;99.90;;;;;;4818077;29;20586;-60
2021/03/01 05:15:52;;;;;;;128.67;45.27;;;1.30;99.90;;;;;;4821871;29;20193;-60
2021/03/01 05:18:20;;;;;;;142.17;51.13;;;1.40;99.90;;;;;;4821548;29;20262;-60
2021/03/01 05:20:47;;;;;;;147.13;50.37;;;1.70;99.90;;;;;;4821596;29;20207;-60
2021/03/01 05:23:14;;;;;;;163.47;52.97;;;1.80;99.90;;;;;;4819213;29;20204;-60
2021/03/01 05:25:43;;;;;;;165.87;53.03;;;1.80;99.90;;;;;;4820485;29;20312;-60
2021/03/01 05:28:11;;;;;;;165.13;54.63;;;1.90;99.90;;;;;;4820847;29;20228;-60
2021/03/01 05:30:38;;;;;;;167.00;54.50;;;2.00;99.90;;;;;;4821287;29;20201;-60
2021/03/01 05:33:06;;;;;;;183.80;55.57;;;2.00;99.90;;;;;;4819148;29;20215;-60
2021/03/01 05:35:34;;;;;;;192.77;56.47;;;2.10;99.90;;;;;;4818970;29;20661;-60
2021/03/01 05:38:03;;;;;;;201.00;57.00;;;2.10;99.90;;;;;;4819887;29;20205;-60
2021/03/01 05:40:30;;;;;;;194.80;57.70;;;2.10;99.90;;;;;;4821911;29;20224;-60
2021/03/01 05:43:01;;;;;;;211.70;59.63;;;2.20;99.90;;;;;;4820606;29;20746;-60
2021/03/01 05:45:28;;;;;;;190.83;55.97;;;2.20;99.90;;;;;;4820306;29;20213;-60
2021/03/01 05:47:59;;;;;;;230.80;59.70;;;2.30;99.90;;;;;;4819722;29;20209;-60
2021/03/01 05:50:27;;;;;;;268.30;61.47;;;2.40;99.90;;;;;;4817459;29;20740;-60
2021/03/01 05:53:00;;;;;;;252.80;60.73;;;2.50;99.90;;;;;;4816292;29;20219;-60
2021/03/01 05:55:28;;;;;;;255.00;64.57;;;2.50;99.90;;;;;;4820615;29;20201;-61
2021/03/01 05:58:00;;;;;;;292.93;66.57;;;2.50;99.90;;;;;;4817099;29;20193;-60
2021/03/01 06:00:28;;;;;;;262.07;64.37;;;2.60;99.90;;;;;;4819381;29;20240;-60
2021/03/01 06:02:57;;;;;;;264.90;61.33;;;2.60;99.90;;;;;;4810645;29;20209;-61
2021/03/01 06:05:26;;;;;;;294.00;62.70;;;2.60;99.90;;;;;;4817847;29;20653;-60
2021/03/01 06:07:56;;;;;;;281.70;62.27;;;2.60;99.90;;;;;;4818427;29;20200;-60
2021/03/01 06:10:24;;;;;;;280.33;62.07;;;2.60;99.90;;;;;;4818445;29;20196;-61
2021/03/01 06:12:51;;;;;;;221.13;57.97;;;2.60;99.90;;;;;;4815526;29;20222;-60
2021/03/01 06:15:20;;;;;;;231.37;57.43;;;2.60;99.90;;;;;;4818989;29;20201;-60
2021/03/01 06:18:04;;;;;;;260.87;61.60;;;2.60;99.90;;;;;;4818927;29;20193;-60
2021/03/01 06:20:31;;;;;;;241.30;59.47;;;2.60;99.90;;;;;;4803641;29;20617;-60
2021/03/01 06:22:59;;;;;;;232.23;58.10;;;2.60;99.90;;;;;;4824309;29;20211;-60
2021/03/01 06:25:26;;;;;;;254.00;58.27;;;2.60;99.90;;;;;;4815373;29;20277;-60
2021/03/01 06:27:55;;;;;;;243.70;56.53;;;2.60;99.90;;;;;;4816822;29;20193;-60
2021/03/01 06:30:25;;;;;;;217.13;60.67;;;2.50;99.90;;;;;;4814734;29;20289;-60
2021/03/01 06:33:13;;;;;;;229.47;59.73;;;2.50;99.90;;;;;;4815375;29;20207;-60
2021/03/01 06:35:43;;;;;;;238.23;59.20;;;2.60;99.90;;;;;;4816973;29;20689;-60
2021/03/01 06:38:16;;;;;;;245.73;60.60;;;2.60;99.90;;;;;;4818433;29;20207;-60
2021/03/01 06:40:44;;;;;;;273.83;58.83;;;2.60;99.90;;;;;;4815143;29;20228;-61
2021/03/01 06:43:13;;;;;;;258.47;60.80;;;2.50;99.90;;;;;;4820467;29;20231;-60
2021/03/01 06:45:42;;;;;;;249.97;58.37;;;2.60;99.90;;;;;;4816163;29;20315;-61
2021/03/01 06:48:10;;;;;;;252.27;57.30;;;2.50;99.90;;;;;;4829036;29;20217;-60
2021/03/01 06:50:43;;;;;;;240.07;58.53;;;2.50;99.90;;;;;;4808845;29;20267;-60
2021/03/01 06:53:16;;;;;;;274.23;58.63;;;2.50;99.90;;;;;;4819655;29;20215;-60
2021/03/01 06:55:58;;;;;;;252.30;58.00;;;2.50;99.90;;;;;;4817418;29;20201;-60
2021/03/01 06:58:27;;;;;;;236.90;57.10;;;2.50;99.90;;;;;;4815806;29;20216;-61
2021/03/01 07:01:04;;;;;;;238.40;56.73;;;2.60;99.90;;;;;;4813145;29;20666;-60
2021/03/01 07:03:33;;;;;;;254.23;58.10;;;2.60;99.90;;;;;;4817135;29;20253;-60
2021/03/01 07:06:01;;;;;;;260.83;59.40;;;2.60;99.90;;;;;;4814986;29;20237;-60
2021/03/01 07:08:40;;;;;;;245.20;57.73;;;2.60;99.90;;;;;;4820180;29;20285;-60
2021/03/01 07:11:21;;;;;;;253.17;56.93;;;2.60;99.90;;;;;;4819946;29;20208;-61
2021/03/01 07:13:53;;;;;;;226.40;54.40;;;2.60;99.90;;;;;;4820971;29;20292;-60
2021/03/01 07:16:21;;;;;;;230.43;55.23;;;2.60;99.90;;;;;;4820681;29;20291;-60
2021/03/01 07:18:50;;;;;;;241.03;55.90;;;2.60;99.90;;;;;;4820981;29;20205;-60
2021/03/01 07:21:19;;;;;;;241.13;54.47;;;2.70;99.90;;;;;;4821175;29;20287;-60
2021/03/01 07:23:47;;;;;;;241.17;54.33;;;2.70;99.90;;;;;;4820682;29;20205;-60
2021/03/01 07:26:17;;;;;;;250.80;57.00;;;2.70;99.90;;;;;;4820648;29;20277;-60
2021/03/01 07:28:49;;;;;;;262.57;57.47;;;2.70;99.90;;;;;;4820980;29;20681;-61
2021/03/01 07:31:20;;;;;;;250.03;55.00;;;2.80;99.90;;;;;;4821499;29;20204;-60
2021/03/01 07:33:49;;;;;;;236.23;56.20;;;2.90;99.90;;;;;;4815531;29;20201;-60
2021/03/01 07:36:18;;;;;;;239.10;54.43;;;2.90;99.90;;;;;;4811220;29;20205;-60
2021/03/01 07:38:46;;;;;;;222.00;54.77;;;2.90;99.90;;;;;;4811280;29;20208;-60
2021/03/01 07:41:14;;;;;;;222.80;52.83;;;2.90;99.90;;;;;;4825942;29;20304;-60
2021/03/01 07:43:43;;;;;;;209.80;51.03;;;2.90;99.90;;;;;;4814041;29;20222;-60
2021/03/01 07:46:11;;;;;;;231.77;54.60;;;2.80;99.90;;;;;;4816319;29;20216;-60
2021/03/01 07:48:42;;;;;;;226.03;53.90;;;2.90;99.90;;;;;;4833353;29;20233;-60
2021/03/01 07:51:12;;;;;;;218.57;53.13;;;2.90;99.90;;;;;;4828215;29;20241;-61
2021/03/01 07:53:49;;;;;;;222.13;52.47;;;3.00;99.90;;;;;;4818371;29;20205;-60
2021/03/01 07:56:51;;;;;;;206.10;51.37;;;3.10;99.90;;;;;;4819562;29;20270;-60
2021/03/01 07:59:31;;;;;;;217.53;50.87;;;3.00;99.90;;;;;;4815978;29;20252;-60
2021/03/01 08:02:24;;;;;;;208.33;50.30;;;3.00;99.90;;;;;;4818143;29;20201;-60
2021/03/01 08:04:54;;;;;;;202.67;49.67;;;3.00;99.90;;;;;;4802224;29;20209;-60
2021/03/01 08:07:38;;;;;;;207.03;49.77;;;3.00;99.90;;;;;;4818094;29;20280;-61
2021/03/01 08:10:08;;;;;;;189.33;50.20;;;3.10;99.90;;;;;;4818222;29;20236;-60
2021/03/01 08:13:03;;;;;;;199.57;49.40;;;3.10;99.90;;;;;;4817860;29;20613;-60
2021/03/01 08:15:44;;;;;;;200.20;50.10;;;3.20;99.90;;;;;;4813952;29;20338;-60
2021/03/01 08:18:13;;;;;;;186.17;48.53;;;3.20;99.90;;;;;;4807238;29;20232;-60
2021/03/01 08:20:57;;;;;;;183.63;48.43;;;3.20;99.90;;;;;;4815705;29;20215;-61
2021/03/01 08:23:36;;;;;;;169.00;46.90;;;3.20;99.90;;;;;;4815402;29;20303;-60
2021/03/01 08:26:07;;;;;;;196.13;47.43;;;3.30;99.90;;;;;;4815651;29;20227;-60
2021/03/01 08:28:54;;;;;;;191.87;48.53;;;3.30;99.90;;;;;;4817602;29;20205;-61
2021/03/01 08:31:46;;;;;;;184.70;47.63;;;3.40;99.90;;;;;;4817363;29;20248;-61
2021/03/01 08:34:31;;;;;;;174.67;45.27;;;3.40;99.90;;;;;;4821709;29;20291;-60
2021/03/01 08:37:00;;;;;;;167.53;46.03;;;3.30;99.90;;;;;;4821224;29;20204;-60
2021/03/01 08:40:00;;;;;;;167.03;45.23;;;3.40;99.90;;;;;;4820741;29;20261;-61
2021/03/01 08:42:59;;;;;;;164.83;43.00;;;3.40;99.90;;;;;;4820842;29;20200;-61
2021/03/01 08:45:32;;;;;;;157.17;46.00;;;3.40;99.90;;;;;;4818770;29;20307;-60
2021/03/01 08:48:02;;;;;;;147.70;41.43;;;3.50;99.90;;;;;;4823079;29;20203;-61
2021/03/01 08:50:31;;;;;;;150.80;41.97;;;3.50;99.90;;;;;;4822325;29;20327;-60
2021/03/01 08:53:12;;;;;;;149.70;42.87;;;3.50;99.90;;;;;;4818676;29;20205;-60
2021/03/01 08:55:41;;;;;;;152.43;41.43;;;3.50;99.90;;;;;;4820425;29;21713;-60
2021/03/01 08:58:12;;;;;;;154.70;43.93;;;3.60;99.90;;;;;;4820987;29;20217;-60
2021/03/01 09:00:48;;;;;;;142.60;41.27;;;3.80;99.90;;;;;;4815578;29;20673;-60
2021/03/01 09:03:23;;;;;;;131.20;40.17;;;3.80;99.90;;;;;;4821407;29;20205;-60
2021/03/01 09:05:52;;;;;;;135.17;39.20;;;3.80;99.90;;;;;;4819057;29;20220;-61
2021/03/01 09:08:28;;;;;;;139.27;40.73;;;3.80;99.90;;;;;;4821352;29;20299;-60
2021/03/01 09:10:58;;;;;;;132.97;40.57;;;3.90;99.90;;;;;;4834194;29;20200;-60
2021/03/01 09:13:29;;;;;;;133.00;39.57;;;4.00;99.90;;;;;;4824627;29;20225;-60
2021/03/01 09:16:04;;;;;;;132.90;38.03;;;4.20;99.90;;;;;;4820412;29;20793;-60
2021/03/01 09:18:32;;;;;;;132.63;39.60;;;4.20;99.90;;;;;;4821141;29;20789;-60
2021/03/01 09:21:00;;;;;;;122.23;37.70;;;4.20;99.90;;;;;;4816286;29;20205;-61
2021/03/01 09:23:32;;;;;;;120.90;37.40;;;4.30;99.90;;;;;;4822308;29;20244;-60
2021/03/01 09:26:01;;;;;;;124.17;38.80;;;4.40;99.90;;;;;;4815541;29;20237;-60
2021/03/01 09:28:32;;;;;;;119.73;37.73;;;4.50;99.90;;;;;;4820871;29;20216;-61
2021/03/01 09:31:04;;;;;;;121.77;38.87;;;4.50;99.90;;;;;;4817470;29;20572;-60
2021/03/01 09:33:32;;;;;;;119.67;38.83;;;4.60;99.90;;;;;;4816966;29;20204;-60
2021/03/01 09:35:59;;;;;;;121.20;38.93;;;4.70;99.90;;;;;;4821468;29;20204;-60
2021/03/01 09:38:27;;;;;;;119.77;40.50;;;4.70;99.90;;;;;;4820798;29;20244;-60
2021/03/01 09:40:59;;;;;;;123.77;37.90;;;4.70;99.90;;;;;;4818743;29;20207;-60
2021/03/01 09:43:28;;;;;;;120.63;38.37;;;4.70;99.90;;;;;;4822973;29;20208;-60
2021/03/01 09:45:57;;;;;;;126.93;37.97;;;4.80;99.90;;;;;;4821714;29;20261;-60
2021/03/01 09:48:27;;;;;;;117.10;38.17;;;4.90;99.90;;;;;;4817444;29;20203;-60
2021/03/01 09:50:56;;;;;;;107.77;36.77;;;5.00;99.90;;;;;;4820566;29;20248;-60
2021/03/01 09:53:26;;;;;;;116.90;38.27;;;5.10;99.90;;;;;;4819822;29;20204;-60
2021/03/01 09:55:54;;;;;;;110.00;36.57;;;5.30;99.90;;;;;;4824152;29;20197;-60
2021/03/01 09:58:27;;;;;;;107.20;35.33;;;5.40;99.90;;;;;;4820378;29;20565;-60
2021/03/01 10:01:06;;;;;;;111.30;35.73;;;5.40;99.90;;;;;;4821509;29;20200;-60
2021/03/01 10:03:35;;;;;;;105.23;36.33;;;5.40;99.90;;;;;;4821111;29;20265;-60
2021/03/01 10:06:04;;;;;;;105.90;35.93;;;5.30;99.90;;;;;;4804596;29;20225;-60
2021/03/01 10:08:33;;;;;;;106.87;35.47;;;5.40;99.90;;;;;;4813670;29;20214;-60
2021/03/01 10:11:00;;;;;;;110.90;37.00;;;5.30;99.90;;;;;;4822858;29;20232;-61
2021/03/01 10:13:32;;;;;;;119.93;37.90;;;5.50;99.90;;;;;;4818138;29;20285;-60
2021/03/01 10:16:00;;;;;;;122.23;37.27;;;5.60;99.90;;;;;;4815893;29;20254;-60
2021/03/01 10:18:30;;;;;;;109.57;36.87;;;5.60;99.90;;;;;;4813187;29;20197;-60
2021/03/01 10:21:01;;;;;;;113.00;37.00;;;5.70;99.90;;;;;;4818660;29;20213;-60
2021/03/01 10:23:39;;;;;;;106.27;35.83;;;5.70;99.90;;;;;;4820304;29;20241;-60
2021/03/01 10:26:17;;;;;;;106.00;36.07;;;5.70;99.90;;;;;;4814370;29;20223;-61
2021/03/01 10:28:51;;;;;;;99.33;34.07;;;6.00;99.90;;;;;;4812835;29;20208;-60
2021/03/01 10:31:20;;;;;;;104.23;34.57;;;6.10;99.90;;;;;;4813895;29;20228;-61
2021/03/01 10:33:52;;;;;;;108.53;36.57;;;6.10;99.90;;;;;;4818776;29;20773;-61
2021/03/01 10:36:25;;;;;;;113.60;35.60;;;6.10;99.90;;;;;;4819734;29;20200;-60
2021/03/01 10:38:54;;;;;;;103.30;34.83;;;6.10;99.90;;;;;;4821201;29;20207;-61
2021/03/01 10:41:23;;;;;;;97.93;35.50;;;6.30;99.90;;;;;;4818893;29;20287;-61
2021/03/01 10:44:06;;;;;;;99.07;35.67;;;6.40;99.90;;;;;;4817833;29;20300;-61
2021/03/01 10:46:42;;;;;;;101.57;35.73;;;6.50;99.90;;;;;;4817276;29;20217;-61
2021/03/01 10:49:19;;;;;;;109.20;37.37;;;6.90;99.90;;;;;;4818268;29;20581;-60
2021/03/01 10:51:48;;;;;;;101.80;35.77;;;7.60;99.90;;;;;;4817982;29;20232;-61
2021/03/01 10:54:16;;;;;;;93.27;36.33;;;8.50;99.90;;;;;;4820107;29;20296;-61
2021/03/01 10:56:44;;;;;;;96.27;35.37;;;8.60;99.90;;;;;;4820207;29;20230;-61
2021/03/01 10:59:13;;;;;;;91.10;37.07;;;8.90;99.90;;;;;;4822137;29;20231;-61
2021/03/01 11:01:41;;;;;;;88.37;34.50;;;9.00;99.90;;;;;;4814326;29;20243;-61
2021/03/01 11:04:13;;;;;;;83.10;34.47;;;9.20;99.90;;;;;;4810868;29;20211;-60
2021/03/01 11:06:42;;;;;;;90.13;36.63;;;9.80;99.90;;;;;;4814999;29;20228;-61
2021/03/01 11:09:10;;;;;;;85.20;35.50;;;10.20;99.90;;;;;;4818335;29;20205;-61
2021/03/01 11:11:38;;;;;;;85.17;34.40;;;9.80;99.90;;;;;;4811516;29;20197;-61
2021/03/01 11:14:07;;;;;;;75.73;33.00;;;9.60;99.90;;;;;;4814731;29;20216;-61
2021/03/01 11:16:35;;;;;;;83.30;32.50;;;9.40;99.90;;;;;;4792455;29;20293;-60
2021/03/01 11:19:03;;;;;;;73.87;32.13;;;9.70;99.90;;;;;;4814216;29;20266;-61
2021/03/01 11:21:31;;;;;;;76.73;31.97;;;10.30;99.90;;;;;;4816253;29;20228;-61
2021/03/01 11:23:58;;;;;;;72.13;32.00;;;10.60;99.90;;;;;;4817800;29;20233;-61
2021/03/01 11:26:26;;;;;;;75.03;32.60;;;11.00;99.90;;;;;;4815750;29;20266;-61
2021/03/01 11:28:54;;;;;;;74.47;33.20;;;11.00;99.90;;;;;;4814034;29;20204;-61
2021/03/01 11:31:22;;;;;;;71.33;31.40;;;11.00;99.90;;;;;;4814196;29;20196;-61
2021/03/01 11:33:51;;;;;;;75.27;32.20;;;11.20;99.90;;;;;;4819307;29;20311;-61
2021/03/01 11:36:19;;;;;;;77.43;32.47;;;11.50;99.90;;;;;;4812677;29;20254;-61
2021/03/01 11:38:46;;;;;;;74.70;32.53;;;11.50;99.90;;;;;;4816577;29;20213;-61
2021/03/01 11:41:15;;;;;;;71.03;31.87;;;11.70;99.90;;;;;;4816895;29;20197;-61
2021/03/01 11:43:47;;;;;;;66.30;29.77;;;11.70;99.90;;;;;;4818990;29;20662;-61
2021/03/01 11:46:15;;;;;;;72.90;32.13;;;11.80;99.90;;;;;;4813067;29;20613;-61
2021/03/01 11:48:43;;;;;;;70.90;32.90;;;11.80;99.90;;;;;;4811352;29;20208;-61
2021/03/01 11:51:12;;;;;;;74.03;33.50;;;11.90;99.90;;;;;;4811312;29;20334;-61
2021/03/01 11:53:40;;;;;;;76.40;32.93;;;11.80;99.90;;;;;;4818317;29;20867;-60
2021/03/01 11:56:08;;;;;;;79.20;32.33;;;12.00;99.90;;;;;;4816853;29;20224;-61
2021/03/01 11:58:35;;;;;;;78.07;33.03;;;12.10;99.90;;;;;;4826197;29;20205;-61
2021/03/01 12:01:03;;;;;;;70.30;29.93;;;12.20;99.90;;;;;;4815508;29;20204;-60
2021/03/01 12:03:33;;;;;;;71.37;31.47;;;12.50;99.90;;;;;;4820929;29;20557;-61
2021/03/01 12:06:01;;;;;;;80.47;33.03;;;12.60;99.90;;;;;;4821564;29;20795;-61
2021/03/01 12:08:30;;;;;;;76.00;33.43;;;12.70;99.90;;;;;;4815975;29;20625;-60
2021/03/01 12:10:58;;;;;;;76.57;33.43;;;12.70;99.90;;;;;;4820680;29;20204;-61
2021/03/01 12:13:26;;;;;;;83.67;34.20;;;12.70;99.90;;;;;;4823382;29;20297;-61
2021/03/01 12:15:53;;;;;;;76.53;34.20;;;12.60;99.90;;;;;;4816681;29;20249;-60
2021/03/01 12:18:21;;;;;;;74.80;33.37;;;12.50;99.90;;;;;;4822356;29;20236;-61
2021/03/01 12:20:48;;;;;;;72.73;32.13;;;12.80;99.90;;;;;;4821897;29;20211;-61
2021/03/01 12:23:16;;;;;;;77.10;32.07;;;13.00;99.90;;;;;;4822970;29;20228;-61
2021/03/01 12:25:44;;;;;;;74.70;32.40;;;12.70;99.90;;;;;;4822406;29;20793;-61
2021/03/01 12:28:12;;;;;;;77.03;34.57;;;12.70;99.90;;;;;;4822495;29;20665;-61
2021/03/01 12:30:39;;;;;;;75.07;32.80;;;12.70;99.90;;;;;;4832307;29;20220;-61
2021/03/01 12:33:07;;;;;;;79.33;34.63;;;12.20;99.90;;;;;;4821090;29;20192;-60
2021/03/01 12:35:36;;;;;;;85.40;34.93;;;12.60;99.90;;;;;;4820641;29;20232;-61
2021/03/01 12:38:05;;;;;;;76.33;33.40;;;12.70;99.90;;;;;;4821234;29;20205;-61
2021/03/01 12:40:32;;;;;;;78.47;32.93;;;12.20;99.90;;;;;;4817420;29;20216;-61
2021/03/01 12:43:04;;;;;;;73.80;33.07;;;11.90;99.90;;;;;;4818610;29;20212;-61
2021/03/01 12:45:33;;;;;;;74.50;31.33;;;12.20;99.90;;;;;;4832265;29;20205;-60